Time;durP1;ratioP1;P1;durP2;ratioP2;P2;SDS_P1;SDS_P2;PMS_P1;PMS_P2;Temp;Humidity;BMP_temperature;BMP_pressure;BME280_temperature;BME280_humidity;BME280_pressure;Samples;Min_cycle;Max_cycle;Signal;HPM_P1;HPM_P2
2022/05/25 00:01:40;;;;;;;1.73;1.50;;;12.60;99.90;;;;;;4823230;29;20270;-85
2022/05/25 00:04:06;;;;;;;4.57;1.65;;;12.60;99.90;;;;;;4807288;29;20255;-85
2022/05/25 00:06:32;;;;;;;1.48;1.38;;;12.60;99.90;;;;;;4791121;29;20263;-85
2022/05/25 00:08:58;;;;;;;1.60;1.50;;;12.50;99.90;;;;;;4797664;29;20727;-85
2022/05/25 00:11:24;;;;;;;2.97;1.35;;;12.60;99.90;;;;;;4823222;29;20624;-85
2022/05/25 00:13:50;;;;;;;2.42;1.38;;;12.70;99.90;;;;;;4809194;29;20263;-84
2022/05/25 00:16:17;;;;;;;2.60;1.60;;;12.70;99.90;;;;;;4822873;29;20235;-84
2022/05/25 00:21:27;;;;;;;2.40;1.52;;;12.70;99.90;;;;;;4809581;29;20189;-85
2022/05/25 00:23:53;;;;;;;3.65;1.58;;;12.60;99.90;;;;;;4803987;29;20192;-85
2022/05/25 00:26:19;;;;;;;1.95;1.50;;;12.60;99.90;;;;;;4789760;30;20194;-85
2022/05/25 00:28:44;;;;;;;1.65;1.33;;;12.60;99.90;;;;;;4790944;29;20611;-85
2022/05/25 00:31:10;;;;;;;3.15;1.60;;;12.50;99.90;;;;;;4789810;30;20188;-85
2022/05/25 00:33:35;;;;;;;2.35;1.45;;;12.60;99.90;;;;;;4790847;29;20626;-85
2022/05/25 00:36:01;;;;;;;3.83;1.40;;;12.50;99.90;;;;;;4790845;29;20187;-85
2022/05/25 00:38:27;;;;;;;2.88;1.50;;;12.50;99.90;;;;;;4794056;29;20213;-86
2022/05/25 00:40:52;;;;;;;2.70;1.70;;;12.40;99.90;;;;;;4807747;29;20280;-85
2022/05/25 00:43:18;;;;;;;1.77;1.58;;;12.40;99.90;;;;;;4808305;29;20187;-85
2022/05/25 00:45:49;;;;;;;2.90;1.50;;;12.40;99.90;;;;;;4808336;29;20255;-85
2022/05/25 00:48:24;;;;;;;3.92;1.80;;;12.50;99.90;;;;;;4807777;29;20214;-85
2022/05/25 00:53:35;;;;;;;2.05;1.50;;;12.40;99.90;;;;;;4808501;29;20259;-85
2022/05/25 00:56:01;;;;;;;1.80;1.40;;;12.40;99.90;;;;;;4808391;29;20539;-86
2022/05/25 00:58:27;;;;;;;2.55;1.70;;;12.30;99.90;;;;;;4808399;29;20702;-85
2022/05/25 01:00:53;;;;;;;2.42;1.45;;;12.30;99.90;;;;;;4807521;29;20277;-86
2022/05/25 01:03:19;;;;;;;3.15;2.00;;;12.30;99.90;;;;;;4793454;29;20244;-85
2022/05/25 01:05:49;;;;;;;2.30;1.60;;;12.30;99.90;;;;;;4789390;30;20180;-85
2022/05/25 01:08:26;;;;;;;2.63;1.58;;;12.30;99.90;;;;;;4792928;29;20218;-85
2022/05/25 01:10:55;;;;;;;2.38;1.70;;;12.40;99.90;;;;;;4807240;29;20527;-86
2022/05/25 01:13:43;;;;;;;1.83;1.40;;;12.40;99.90;;;;;;4788632;29;20203;-86
2022/05/25 01:16:17;;;;;;;2.67;1.85;;;12.40;99.90;;;;;;4789132;30;20240;-86
2022/05/25 01:18:56;;;;;;;8.40;1.50;;;12.50;99.90;;;;;;4789426;29;20266;-86
2022/05/25 01:21:37;;;;;;;1.92;1.60;;;12.40;99.90;;;;;;4790108;29;20175;-87
2022/05/25 01:24:13;;;;;;;3.65;1.75;;;12.40;99.90;;;;;;4790377;29;20171;-85
2022/05/25 01:27:03;;;;;;;2.35;1.63;;;12.30;99.90;;;;;;4788897;30;20194;-85
2022/05/25 01:29:35;;;;;;;12.45;1.77;;;12.20;99.90;;;;;;4788734;29;20274;-84
2022/05/25 01:32:11;;;;;;;2.30;1.77;;;12.10;99.90;;;;;;4788814;30;20243;-85
2022/05/25 01:34:42;;;;;;;4.22;1.67;;;12.10;99.90;;;;;;4789149;29;20282;-84
2022/05/25 01:37:22;;;;;;;5.60;1.60;;;12.20;99.90;;;;;;4788422;30;20179;-84
2022/05/25 01:40:00;;;;;;;2.03;1.52;;;12.20;99.90;;;;;;4803863;29;20202;-85
2022/05/25 01:42:30;;;;;;;1.98;1.50;;;12.30;99.90;;;;;;4821797;29;20178;-85
2022/05/25 01:45:01;;;;;;;2.60;1.50;;;12.30;99.90;;;;;;4821717;29;20274;-85
2022/05/25 01:47:30;;;;;;;2.30;1.70;;;12.30;99.90;;;;;;4821480;29;20261;-84
2022/05/25 01:50:01;;;;;;;1.60;1.50;;;12.20;99.90;;;;;;4821314;29;20694;-85
2022/05/25 01:52:33;;;;;;;1.58;1.40;;;12.20;99.90;;;;;;4807654;29;20175;-84
2022/05/25 01:55:04;;;;;;;5.00;1.60;;;12.10;99.90;;;;;;4807514;29;20175;-84
2022/05/25 01:57:33;;;;;;;2.80;1.60;;;12.10;99.90;;;;;;4806409;29;20504;-84
2022/05/25 01:59:58;;;;;;;2.45;1.58;;;12.10;99.90;;;;;;4821448;29;20186;-85
2022/05/25 02:05:11;;;;;;;1.95;1.50;;;12.10;99.90;;;;;;4795385;29;20229;-84
2022/05/25 02:08:00;;;;;;;2.42;1.58;;;12.10;99.90;;;;;;4788113;29;20553;-85
2022/05/25 02:10:45;;;;;;;2.35;1.60;;;12.10;99.90;;;;;;4771457;30;20188;-84
2022/05/25 02:13:22;;;;;;;3.88;1.58;;;12.10;99.90;;;;;;4771337;30;20176;-85
2022/05/25 02:16:16;;;;;;;1.73;1.50;;;12.00;99.90;;;;;;4771882;29;20184;-85
2022/05/25 02:19:08;;;;;;;2.05;1.58;;;12.00;99.90;;;;;;4769887;29;20184;-85
2022/05/25 02:21:59;;;;;;;2.45;1.40;;;12.00;99.90;;;;;;4770759;30;20192;-86
2022/05/25 02:24:30;;;;;;;3.45;1.60;;;11.90;99.90;;;;;;4770529;29;20203;-86
2022/05/25 02:27:01;;;;;;;3.05;1.40;;;11.90;99.90;;;;;;4797601;29;20183;-85
2022/05/25 02:29:40;;;;;;;2.08;1.50;;;11.90;99.90;;;;;;4806767;29;20222;-85
2022/05/25 02:32:12;;;;;;;3.10;1.65;;;11.90;99.90;;;;;;4808813;29;20182;-85
2022/05/25 02:34:41;;;;;;;4.75;1.75;;;11.90;99.90;;;;;;4810448;29;20174;-86
2022/05/25 02:37:07;;;;;;;6.78;2.10;;;12.00;99.90;;;;;;4809513;29;20182;-84
2022/05/25 02:39:33;;;;;;;4.03;1.70;;;11.90;99.90;;;;;;4809655;29;20190;-84
2022/05/25 02:41:59;;;;;;;4.65;1.50;;;11.80;99.90;;;;;;4824617;29;20602;-85
2022/05/25 02:44:25;;;;;;;4.85;1.80;;;11.80;99.90;;;;;;4824469;29;20214;-86
2022/05/25 02:46:52;;;;;;;3.20;1.60;;;11.80;99.90;;;;;;4824772;29;20190;-86
2022/05/25 02:49:18;;;;;;;2.03;1.55;;;11.80;99.90;;;;;;4809119;29;20263;-85
2022/05/25 02:51:45;;;;;;;2.65;1.75;;;11.80;99.90;;;;;;4824453;29;20186;-86
2022/05/25 02:54:10;;;;;;;2.35;1.70;;;11.90;99.90;;;;;;4824429;29;20193;-85
2022/05/25 02:56:38;;;;;;;2.13;1.80;;;11.80;99.90;;;;;;4810419;29;20170;-85
2022/05/25 02:59:04;;;;;;;2.00;1.40;;;11.90;99.90;;;;;;4824424;29;20191;-85
2022/05/25 03:01:29;;;;;;;3.35;1.50;;;11.90;99.90;;;;;;4810424;29;20238;-86
2022/05/25 03:03:55;;;;;;;2.20;1.63;;;11.90;99.90;;;;;;4794634;29;20199;-84
2022/05/25 03:06:21;;;;;;;3.95;1.75;;;11.90;99.90;;;;;;4790913;30;20221;-84
2022/05/25 03:08:47;;;;;;;2.78;1.90;;;11.90;99.90;;;;;;4797378;29;20222;-84
2022/05/25 03:11:13;;;;;;;4.38;1.45;;;11.90;99.90;;;;;;4810273;29;20227;-85
2022/05/25 03:13:39;;;;;;;1.95;1.55;;;11.90;99.90;;;;;;4824181;29;20530;-85
2022/05/25 03:16:07;;;;;;;2.03;1.80;;;12.00;99.90;;;;;;4824120;29;20266;-85
2022/05/25 03:18:34;;;;;;;2.13;1.40;;;12.00;99.90;;;;;;4798705;29;20260;-85
2022/05/25 03:20:59;;;;;;;3.30;1.50;;;11.90;99.90;;;;;;4792122;29;20193;-85
2022/05/25 03:23:25;;;;;;;5.25;1.40;;;11.90;99.90;;;;;;4790878;30;20187;-85
2022/05/25 03:25:51;;;;;;;2.60;1.63;;;11.90;99.90;;;;;;4790626;30;20187;-85
2022/05/25 03:28:17;;;;;;;4.82;1.75;;;11.90;99.90;;;;;;4792071;29;20203;-85
2022/05/25 03:30:45;;;;;;;1.95;1.60;;;11.90;99.90;;;;;;4790866;30;20195;-85
2022/05/25 03:33:11;;;;;;;1.50;1.35;;;11.90;99.90;;;;;;4790157;29;20202;-85
2022/05/25 03:35:37;;;;;;;2.97;1.52;;;11.90;99.90;;;;;;4790448;29;20183;-84
2022/05/25 03:38:04;;;;;;;2.35;1.67;;;11.80;99.90;;;;;;4791661;29;20198;-85
2022/05/25 03:40:30;;;;;;;1.85;1.52;;;11.90;99.90;;;;;;4809628;29;20177;-85
2022/05/25 03:42:57;;;;;;;5.25;1.60;;;11.90;99.90;;;;;;4822375;29;20194;-85
2022/05/25 03:45:24;;;;;;;2.55;1.80;;;11.90;99.90;;;;;;4809772;29;20266;-85
2022/05/25 03:47:50;;;;;;;3.90;1.77;;;11.90;99.90;;;;;;4823530;29;20247;-85
2022/05/25 03:50:18;;;;;;;2.35;1.40;;;11.80;99.90;;;;;;4809413;29;20186;-85
2022/05/25 03:52:44;;;;;;;2.05;1.38;;;11.90;99.90;;;;;;4808901;29;20182;-85
2022/05/25 03:55:10;;;;;;;2.10;1.58;;;11.80;99.90;;;;;;4808020;29;20316;-85
2022/05/25 03:57:36;;;;;;;1.98;1.50;;;11.80;99.90;;;;;;4808863;29;20185;-85
2022/05/25 04:00:04;;;;;;;3.15;1.40;;;11.80;99.90;;;;;;4808381;29;20273;-85
2022/05/25 04:02:30;;;;;;;7.18;2.00;;;11.80;99.90;;;;;;4807885;29;20197;-84
2022/05/25 04:05:07;;;;;;;1.70;1.35;;;11.80;99.90;;;;;;4807436;29;20191;-84
2022/05/25 04:07:44;;;;;;;3.08;1.50;;;11.80;99.90;;;;;;4807838;29;20526;-84
2022/05/25 04:10:13;;;;;;;1.60;1.23;;;11.80;99.90;;;;;;4809042;29;20199;-84
2022/05/25 04:12:40;;;;;;;1.77;1.30;;;11.80;99.90;;;;;;4807937;29;20183;-85
2022/05/25 04:15:08;;;;;;;3.30;1.63;;;11.80;99.90;;;;;;4807873;29;20194;-84
2022/05/25 04:17:34;;;;;;;3.85;1.60;;;11.80;99.90;;;;;;4808934;29;20179;-84
2022/05/25 04:20:02;;;;;;;2.22;1.50;;;11.80;99.90;;;;;;4822303;29;20234;-85
2022/05/25 04:22:29;;;;;;;2.63;1.67;;;11.80;99.90;;;;;;4822432;29;20202;-86
2022/05/25 04:24:55;;;;;;;6.63;1.70;;;11.80;99.90;;;;;;4807785;29;20275;-85
2022/05/25 04:27:21;;;;;;;3.10;1.45;;;11.90;99.90;;;;;;4809061;29;20556;-85
2022/05/25 04:29:46;;;;;;;3.38;1.80;;;11.90;99.90;;;;;;4807619;29;20218;-86
2022/05/25 04:32:12;;;;;;;2.25;1.58;;;11.90;99.90;;;;;;4807513;29;20193;-84
2022/05/25 04:34:38;;;;;;;4.40;1.50;;;11.90;99.90;;;;;;4807344;29;20526;-84
2022/05/25 04:39:48;;;;;;;3.55;1.75;;;12.00;99.90;;;;;;4801513;29;20309;-84
2022/05/25 04:42:13;;;;;;;3.53;1.90;;;12.00;99.90;;;;;;4822491;29;20182;-85
2022/05/25 04:44:39;;;;;;;3.20;1.70;;;12.10;99.90;;;;;;4808547;29;20190;-84
2022/05/25 04:47:08;;;;;;;3.20;1.83;;;12.20;99.90;;;;;;4822572;29;20183;-84
2022/05/25 04:49:34;;;;;;;3.13;1.80;;;12.30;99.90;;;;;;4807583;29;20260;-84
2022/05/25 04:52:00;;;;;;;3.70;1.50;;;12.40;99.90;;;;;;4807331;29;20270;-85
2022/05/25 04:54:26;;;;;;;2.42;1.52;;;12.50;99.90;;;;;;4806785;29;20235;-84
2022/05/25 04:59:35;;;;;;;3.10;1.50;;;12.60;99.90;;;;;;4808472;29;20311;-85
2022/05/25 05:02:01;;;;;;;3.22;1.83;;;12.70;99.90;;;;;;4794699;29;20274;-85
2022/05/25 05:04:27;;;;;;;3.25;1.65;;;12.70;99.90;;;;;;4803372;29;20284;-85
2022/05/25 05:06:53;;;;;;;4.32;1.70;;;12.80;99.90;;;;;;4790241;29;20172;-85
2022/05/25 05:09:18;;;;;;;3.17;1.70;;;12.80;99.90;;;;;;4800459;29;20222;-84
2022/05/25 05:11:45;;;;;;;2.38;1.77;;;12.80;99.90;;;;;;4806959;29;20530;-85
2022/05/25 05:14:13;;;;;;;3.45;1.77;;;12.80;99.90;;;;;;4807775;29;20635;-84
2022/05/25 05:16:38;;;;;;;4.93;1.80;;;12.90;99.90;;;;;;4816826;29;20180;-85
2022/05/25 05:19:04;;;;;;;2.42;1.70;;;13.00;99.90;;;;;;4803290;29;20322;-85
2022/05/25 05:21:30;;;;;;;3.78;1.98;;;13.00;99.90;;;;;;4804039;29;20249;-86
2022/05/25 05:23:55;;;;;;;1.75;1.65;;;13.00;99.90;;;;;;4789636;29;20195;-85
2022/05/25 05:26:21;;;;;;;2.47;1.95;;;13.00;99.90;;;;;;4789906;29;20171;-84
2022/05/25 05:28:49;;;;;;;2.78;1.80;;;13.00;99.90;;;;;;4788649;30;20268;-85
2022/05/25 05:31:15;;;;;;;4.13;2.20;;;13.10;99.90;;;;;;4788369;30;20183;-84
2022/05/25 05:33:41;;;;;;;3.13;2.17;;;13.20;99.90;;;;;;4789534;29;20189;-85
2022/05/25 05:36:20;;;;;;;3.53;1.90;;;13.20;99.90;;;;;;4789662;29;20623;-85
2022/05/25 05:38:53;;;;;;;4.53;2.42;;;13.20;99.90;;;;;;4804283;29;20195;-85
2022/05/25 05:41:21;;;;;;;7.70;2.70;;;13.20;99.90;;;;;;4789975;29;20190;-84
2022/05/25 05:43:48;;;;;;;4.30;2.40;;;13.20;99.90;;;;;;4770741;29;20184;-85
2022/05/25 05:46:15;;;;;;;2.83;2.30;;;13.30;99.90;;;;;;4771619;30;20188;-84
2022/05/25 05:48:41;;;;;;;3.33;2.47;;;13.40;99.90;;;;;;4770304;30;20235;-84
2022/05/25 05:51:08;;;;;;;3.58;2.58;;;13.40;99.90;;;;;;4770415;29;20197;-85
2022/05/25 05:53:34;;;;;;;3.83;2.75;;;13.50;99.90;;;;;;4779269;29;20194;-85
2022/05/25 05:56:01;;;;;;;5.68;3.30;;;13.50;99.90;;;;;;4806082;29;20183;-85
2022/05/25 05:58:27;;;;;;;4.68;3.50;;;13.50;99.90;;;;;;4806523;29;20618;-84
2022/05/25 06:00:53;;;;;;;5.68;2.85;;;13.60;99.90;;;;;;4801169;29;20274;-84
2022/05/25 06:03:19;;;;;;;7.70;3.35;;;13.60;99.90;;;;;;4787316;29;20262;-83
2022/05/25 06:05:45;;;;;;;4.35;3.30;;;13.60;99.90;;;;;;4805098;29;20193;-86
2022/05/25 06:08:18;;;;;;;4.88;3.70;;;13.70;99.90;;;;;;4806790;29;20213;-84
2022/05/25 06:10:44;;;;;;;4.40;3.70;;;13.70;99.90;;;;;;4807989;29;20202;-86
2022/05/25 06:13:10;;;;;;;3.95;3.25;;;13.70;99.90;;;;;;4789349;29;20184;-83
2022/05/25 06:21:09;;;;;;;5.70;2.90;;;14.00;99.90;;;;;;4807476;29;20355;-82
2022/05/25 06:23:35;;;;;;;2.80;2.50;;;14.00;99.90;;;;;;4805716;29;20187;-84
2022/05/25 06:26:00;;;;;;;4.82;3.20;;;14.10;99.90;;;;;;4797543;29;20269;-83
2022/05/25 06:28:26;;;;;;;5.18;3.85;;;14.10;99.90;;;;;;4787493;29;20292;-83
2022/05/25 06:30:53;;;;;;;4.57;3.30;;;14.10;99.90;;;;;;4803254;29;20231;-83
2022/05/25 06:33:19;;;;;;;5.18;3.20;;;14.20;99.90;;;;;;4805225;29;20627;-85
2022/05/25 06:35:45;;;;;;;6.65;3.53;;;14.40;99.90;;;;;;4795299;29;20198;-86
2022/05/25 06:38:11;;;;;;;4.38;3.58;;;14.40;99.90;;;;;;4804126;29;20179;-84
2022/05/25 06:40:36;;;;;;;7.80;3.35;;;14.50;99.90;;;;;;4798054;29;20190;-84
2022/05/25 06:43:03;;;;;;;5.68;3.15;;;14.60;99.90;;;;;;4787272;29;20692;-83
2022/05/25 06:45:28;;;;;;;4.10;3.28;;;14.60;99.90;;;;;;4787707;29;20281;-83
2022/05/25 06:47:54;;;;;;;5.30;3.60;;;14.80;99.90;;;;;;4788096;29;20605;-83
2022/05/25 06:50:20;;;;;;;4.68;4.00;;;14.80;99.90;;;;;;4788476;29;20192;-83
2022/05/25 06:52:46;;;;;;;4.68;3.40;;;15.00;99.90;;;;;;4787212;29;20187;-83
2022/05/25 06:55:11;;;;;;;4.72;3.80;;;15.20;99.90;;;;;;4786999;29;20260;-82
2022/05/25 06:57:37;;;;;;;4.95;3.47;;;15.30;99.90;;;;;;4786815;29;20195;-83
2022/05/25 07:00:04;;;;;;;6.72;4.22;;;15.50;99.90;;;;;;4786273;29;20615;-84
2022/05/25 07:02:29;;;;;;;7.40;3.88;;;15.50;99.90;;;;;;4785377;29;20191;-84
2022/05/25 07:04:55;;;;;;;5.20;3.83;;;15.70;99.90;;;;;;4787094;29;20270;-83
2022/05/25 07:07:21;;;;;;;9.30;3.75;;;15.80;99.90;;;;;;4787751;29;20194;-84
2022/05/25 07:09:47;;;;;;;8.23;4.15;;;15.90;99.90;;;;;;4798774;29;20211;-84
2022/05/25 07:12:12;;;;;;;8.85;3.92;;;16.00;99.90;;;;;;4800539;29;20191;-84
2022/05/25 07:14:39;;;;;;;6.03;4.13;;;16.10;99.90;;;;;;4787443;29;20226;-84
2022/05/25 07:17:06;;;;;;;5.75;4.18;;;16.10;99.90;;;;;;4801659;29;20187;-85
2022/05/25 07:19:32;;;;;;;5.32;3.35;;;16.20;99.90;;;;;;4790309;30;20235;-84
2022/05/25 07:21:58;;;;;;;12.63;4.03;;;16.10;99.90;;;;;;4788795;29;20188;-85
2022/05/25 07:24:23;;;;;;;6.63;4.18;;;16.20;99.90;;;;;;4805798;29;20193;-85
2022/05/25 07:26:49;;;;;;;5.13;4.25;;;16.40;99.90;;;;;;4805067;29;20303;-83
2022/05/25 07:29:14;;;;;;;11.63;4.35;;;16.60;99.90;;;;;;4791945;29;20276;-84
2022/05/25 07:31:40;;;;;;;5.10;3.72;;;16.90;99.90;;;;;;4791769;29;20685;-85
2022/05/25 07:34:21;;;;;;;5.07;3.85;;;17.10;99.90;;;;;;4789255;29;20282;-84
2022/05/25 07:37:00;;;;;;;7.47;3.70;;;17.30;99.90;;;;;;4783994;30;20611;-85
2022/05/25 07:39:40;;;;;;;6.43;3.72;;;17.40;99.90;;;;;;4801918;29;20194;-85
2022/05/25 07:42:07;;;;;;;6.72;4.30;;;17.20;99.90;;;;;;4823524;29;20527;-84
2022/05/25 07:44:41;;;;;;;6.45;4.28;;;17.00;99.90;;;;;;4823433;29;20650;-84
2022/05/25 07:47:06;;;;;;;7.65;5.07;;;16.90;99.90;;;;;;4806125;29;20273;-85
2022/05/25 07:49:32;;;;;;;8.95;5.20;;;16.90;99.90;;;;;;4786713;29;20670;-83
2022/05/25 07:51:58;;;;;;;8.95;4.30;;;16.90;99.90;;;;;;4772224;29;20621;-84
2022/05/25 07:54:24;;;;;;;6.50;3.28;;;17.20;99.90;;;;;;4772230;29;20212;-85
2022/05/25 07:56:51;;;;;;;3.80;2.83;;;17.60;99.90;;;;;;4787637;29;20191;-84
2022/05/25 07:59:17;;;;;;;7.90;3.50;;;17.60;99.90;;;;;;4790060;30;20187;-85
2022/05/25 08:07:22;;;;;;;5.35;3.40;;;18.00;99.90;;;;;;4790274;30;20187;-83
2022/05/25 08:09:54;;;;;;;12.88;4.63;;;17.90;99.90;;;;;;4800068;29;20235;-83
2022/05/25 08:12:21;;;;;;;7.15;3.10;;;18.20;99.90;;;;;;4820062;29;20221;-83
2022/05/25 08:14:47;;;;;;;3.25;2.20;;;18.20;99.90;;;;;;4804913;29;20191;-84
2022/05/25 08:17:13;;;;;;;5.93;2.60;;;18.20;99.90;;;;;;4790361;29;20184;-84
2022/05/25 08:19:39;;;;;;;4.20;2.92;;;17.80;99.90;;;;;;4804195;29;20603;-82
2022/05/25 08:22:06;;;;;;;3.35;2.67;;;17.80;99.90;;;;;;4790682;29;20194;-84
2022/05/25 08:24:32;;;;;;;6.28;3.13;;;18.00;99.90;;;;;;4789794;29;20187;-83
2022/05/25 08:26:58;;;;;;;4.18;2.33;;;18.30;99.90;;;;;;4791021;29;20198;-84
2022/05/25 08:29:25;;;;;;;3.42;2.38;;;18.30;99.90;;;;;;4789758;29;20601;-84
2022/05/25 08:31:55;;;;;;;2.78;2.20;;;18.00;99.90;;;;;;4789348;29;20215;-83
2022/05/25 08:34:24;;;;;;;4.97;2.58;;;18.00;99.90;;;;;;4789486;29;20210;-81
2022/05/25 08:36:50;;;;;;;11.43;2.60;;;18.30;99.90;;;;;;4789140;29;20191;-83
2022/05/25 08:39:16;;;;;;;3.42;2.42;;;18.40;99.90;;;;;;4793848;29;20187;-84
2022/05/25 08:41:44;;;;;;;7.05;2.45;;;18.40;99.90;;;;;;4790350;29;20671;-83
2022/05/25 08:44:11;;;;;;;5.38;2.60;;;18.40;99.40;;;;;;4790514;29;20215;-83
2022/05/25 08:46:39;;;;;;;3.70;2.33;;;18.20;99.90;;;;;;4789096;29;20571;-84
2022/05/25 08:49:16;;;;;;;6.72;2.58;;;18.00;99.90;;;;;;4795790;29;20215;-84
2022/05/25 08:51:48;;;;;;;3.50;2.42;;;17.70;99.90;;;;;;4806623;29;20206;-84
2022/05/25 08:54:15;;;;;;;3.55;2.10;;;17.60;99.90;;;;;;4807373;29;20174;-85
2022/05/25 08:56:55;;;;;;;3.95;2.75;;;17.40;99.90;;;;;;4808556;29;20175;-85
2022/05/25 08:59:25;;;;;;;5.65;2.45;;;17.10;99.90;;;;;;4796744;29;20654;-84
2022/05/25 09:02:10;;;;;;;5.07;2.65;;;17.10;99.90;;;;;;4803211;29;20195;-83
2022/05/25 09:04:45;;;;;;;5.63;2.60;;;17.10;99.90;;;;;;4790289;29;20254;-83
2022/05/25 09:07:38;;;;;;;6.45;2.90;;;17.10;99.90;;;;;;4806865;29;20600;-84
2022/05/25 09:10:05;;;;;;;3.38;2.60;;;17.60;99.90;;;;;;4798290;29;20212;-85
2022/05/25 09:12:43;;;;;;;2.78;1.95;;;17.90;99.90;;;;;;4772219;30;20180;-84
2022/05/25 09:16:15;;;;;;;3.47;2.33;;;17.90;99.90;;;;;;4785729;29;20276;-83
2022/05/25 09:18:25;;;;;;;4.05;2.05;;;18.00;99.90;;;;;;4772090;29;20184;-81
2022/05/25 09:20:51;;;;;;;8.65;2.20;;;18.30;99.90;;;;;;4798591;29;20239;-82
2022/05/25 09:23:18;;;;;;;3.75;1.88;;;18.70;99.30;;;;;;4788632;29;20700;-83
2022/05/25 09:25:46;;;;;;;4.20;1.42;;;18.90;99.30;;;;;;4789617;29;20183;-82
2022/05/25 09:28:19;;;;;;;3.40;1.40;;;19.00;98.30;;;;;;4787484;29;20225;-83
2022/05/25 09:30:53;;;;;;;1.33;0.98;;;19.30;99.10;;;;;;4789898;29;20187;-83
2022/05/25 09:33:40;;;;;;;2.20;1.20;;;19.30;96.10;;;;;;4788136;29;20191;-81
2022/05/25 09:36:17;;;;;;;2.97;1.00;;;19.40;97.40;;;;;;4779557;30;20175;-84
2022/05/25 09:39:26;;;;;;;1.92;1.40;;;19.50;97.00;;;;;;4794238;29;20190;-82
2022/05/25 09:41:59;;;;;;;4.03;1.92;;;19.40;95.80;;;;;;4779897;29;20261;-84
2022/05/25 09:44:26;;;;;;;2.30;1.40;;;19.50;97.50;;;;;;4803186;29;20187;-82
2022/05/25 09:47:05;;;;;;;1.58;1.20;;;19.50;96.00;;;;;;4802513;29;20194;-83
2022/05/25 09:49:34;;;;;;;4.03;1.30;;;19.70;96.40;;;;;;4789319;29;20378;-84
2022/05/25 09:52:04;;;;;;;2.30;1.17;;;19.90;96.50;;;;;;4789540;29;20187;-83
2022/05/25 09:54:46;;;;;;;2.60;1.10;;;20.00;97.40;;;;;;4789601;29;20182;-82
2022/05/25 09:57:28;;;;;;;6.55;1.38;;;20.30;95.80;;;;;;4802414;29;20199;-83
2022/05/25 10:00:37;;;;;;;2.28;1.00;;;20.30;94.80;;;;;;4788900;29;20214;-83
2022/05/25 10:03:22;;;;;;;1.63;0.98;;;20.30;94.90;;;;;;4788889;30;20195;-84
2022/05/25 10:05:56;;;;;;;2.35;1.00;;;20.30;93.70;;;;;;4780772;30;20187;-84
2022/05/25 10:08:37;;;;;;;2.65;1.30;;;20.30;95.20;;;;;;4793785;29;20243;-83
2022/05/25 10:11:27;;;;;;;1.20;0.88;;;20.30;95.20;;;;;;4807414;29;20504;-85
2022/05/25 10:13:55;;;;;;;3.35;1.05;;;20.10;95.00;;;;;;4801474;29;20183;-85
2022/05/25 10:16:24;;;;;;;1.60;0.95;;;20.00;95.20;;;;;;4788617;29;20203;-83
2022/05/25 10:18:50;;;;;;;1.70;1.10;;;20.10;94.70;;;;;;4787746;29;20188;-84
2022/05/25 10:21:31;;;;;;;1.98;0.90;;;20.10;95.10;;;;;;4802660;29;20550;-83
2022/05/25 10:23:58;;;;;;;1.15;0.77;;;20.00;94.30;;;;;;4789118;29;20273;-82
2022/05/25 10:26:43;;;;;;;1.98;0.90;;;19.80;95.20;;;;;;4786926;29;20206;-84
2022/05/25 10:29:12;;;;;;;2.70;1.20;;;19.60;95.50;;;;;;4788968;29;20284;-82
2022/05/25 10:37:39;;;;;;;1.95;1.20;;;18.90;96.80;;;;;;4771226;30;20211;-83
2022/05/25 10:40:07;;;;;;;1.13;1.00;;;19.40;98.20;;;;;;4786179;29;20282;-85
2022/05/25 10:42:37;;;;;;;3.65;1.10;;;19.80;96.50;;;;;;4802633;29;20190;-84
2022/05/25 10:45:32;;;;;;;1.95;1.08;;;19.80;95.90;;;;;;4787044;29;20274;-83
2022/05/25 10:48:10;;;;;;;2.17;0.93;;;19.40;95.70;;;;;;4801320;29;20199;-84
2022/05/25 10:50:57;;;;;;;1.33;1.10;;;19.10;96.50;;;;;;4787775;29;20210;-84
2022/05/25 10:56:56;;;;;;;2.05;1.10;;;18.60;97.20;;;;;;4792497;30;20205;-85
2022/05/25 10:59:26;;;;;;;2.40;0.90;;;19.10;97.40;;;;;;4792230;29;20179;-85
2022/05/25 11:02:11;;;;;;;1.63;0.80;;;19.70;97.00;;;;;;4790468;29;20209;-82
2022/05/25 11:05:09;;;;;;;3.78;1.10;;;20.30;94.20;;;;;;4790029;29;20222;-83
2022/05/25 11:07:43;;;;;;;2.58;0.75;;;20.50;93.40;;;;;;4791997;29;20175;-82
2022/05/25 11:10:19;;;;;;;6.00;1.05;;;20.60;93.90;;;;;;4822262;29;20714;-83
2022/05/25 11:13:14;;;;;;;1.58;0.90;;;20.70;92.50;;;;;;4810098;29;20599;-83
2022/05/25 11:16:10;;;;;;;1.25;0.70;;;21.00;93.40;;;;;;4808675;29;20634;-84
2022/05/25 11:18:48;;;;;;;3.33;0.90;;;21.30;93.50;;;;;;4812253;29;20203;-81
2022/05/25 11:21:23;;;;;;;2.97;0.90;;;21.50;91.00;;;;;;4791192;29;20639;-83
2022/05/25 11:23:58;;;;;;;1.55;0.70;;;21.40;91.10;;;;;;4805561;29;20219;-83
2022/05/25 11:26:48;;;;;;;1.38;0.73;;;21.10;90.40;;;;;;4790782;30;20186;-83
2022/05/25 11:29:13;;;;;;;1.13;0.90;;;20.90;90.70;;;;;;4805908;29;20218;-82
2022/05/25 11:32:00;;;;;;;1.98;0.93;;;20.60;93.90;;;;;;4791638;29;20517;-83
2022/05/25 11:34:32;;;;;;;3.10;0.80;;;20.70;92.50;;;;;;4790521;30;20195;-85
2022/05/25 11:37:26;;;;;;;1.73;0.70;;;20.80;92.90;;;;;;4786669;30;20180;-85
2022/05/25 11:40:07;;;;;;;1.40;0.90;;;20.50;92.50;;;;;;4793228;29;20207;-83
2022/05/25 11:43:19;;;;;;;1.85;0.73;;;20.20;92.30;;;;;;4781260;30;20183;-83
2022/05/25 11:46:21;;;;;;;2.45;0.70;;;20.20;93.80;;;;;;4788910;30;20341;-86
2022/05/25 11:49:26;;;;;;;1.40;0.82;;;20.40;91.90;;;;;;4787037;30;20232;-85
2022/05/25 11:52:15;;;;;;;2.30;0.90;;;20.30;92.10;;;;;;4773354;29;20191;-83
2022/05/25 11:55:19;;;;;;;2.03;0.90;;;20.20;93.00;;;;;;4786896;30;20194;-84
2022/05/25 11:58:11;;;;;;;5.10;1.80;;;20.30;92.00;;;;;;4789258;29;20264;-84
2022/05/25 12:00:47;;;;;;;1.38;1.00;;;20.50;92.20;;;;;;4791405;29;20176;-84
2022/05/25 12:03:44;;;;;;;1.40;0.75;;;20.50;91.50;;;;;;4789665;29;20190;-84
2022/05/25 12:06:45;;;;;;;2.15;0.77;;;20.70;91.20;;;;;;4790597;29;20176;-83
2022/05/25 12:09:33;;;;;;;3.75;0.80;;;20.70;91.80;;;;;;4800734;29;20218;-86
2022/05/25 12:12:09;;;;;;;1.80;0.90;;;20.60;91.50;;;;;;4797979;29;20254;-85
2022/05/25 12:14:38;;;;;;;3.10;0.80;;;20.50;91.90;;;;;;4791103;29;20181;-85
2022/05/25 12:17:35;;;;;;;2.88;0.80;;;20.30;90.00;;;;;;4790467;29;20187;-84
2022/05/25 12:20:06;;;;;;;1.85;0.77;;;20.40;91.00;;;;;;4772030;30;20246;-85
2022/05/25 12:22:35;;;;;;;1.35;0.80;;;20.40;91.70;;;;;;4772947;29;20188;-84
2022/05/25 12:25:13;;;;;;;2.38;0.68;;;20.40;90.70;;;;;;4780008;30;20215;-83
2022/05/25 12:27:46;;;;;;;1.60;0.70;;;20.60;91.50;;;;;;4772811;30;20192;-83
2022/05/25 12:30:20;;;;;;;1.08;0.63;;;20.70;90.00;;;;;;4772611;30;20208;-84
2022/05/25 12:32:46;;;;;;;0.80;0.50;;;20.60;87.00;;;;;;4790082;29;20201;-84
2022/05/25 12:35:15;;;;;;;3.45;0.75;;;20.60;90.00;;;;;;4792359;29;20213;-84
2022/05/25 12:37:44;;;;;;;1.00;0.90;;;20.60;89.10;;;;;;4790570;29;20248;-84
2022/05/25 12:40:41;;;;;;;0.65;0.45;;;20.60;90.10;;;;;;4807586;29;20187;-85
2022/05/25 12:43:38;;;;;;;1.75;0.75;;;20.90;89.60;;;;;;4806935;29;20679;-85
2022/05/25 12:48:59;;;;;;;1.55;0.50;;;21.20;88.30;;;;;;4790525;29;20221;-84
2022/05/25 12:51:43;;;;;;;0.85;0.50;;;21.70;87.20;;;;;;4803614;29;20619;-86
2022/05/25 12:54:23;;;;;;;1.63;0.82;;;22.00;86.10;;;;;;4790372;29;20618;-84
2022/05/25 12:56:50;;;;;;;1.33;0.50;;;22.20;86.40;;;;;;4790308;29;20187;-83
2022/05/25 12:59:33;;;;;;;1.88;0.60;;;22.40;85.60;;;;;;4790243;29;20180;-82
2022/05/25 13:02:31;;;;;;;2.17;0.43;;;22.50;83.30;;;;;;4789779;29;20190;-83
2022/05/25 13:04:59;;;;;;;0.90;0.50;;;22.60;82.90;;;;;;4771861;30;20763;-83
2022/05/25 13:07:37;;;;;;;1.48;0.50;;;22.60;84.30;;;;;;4770958;30;20196;-84
2022/05/25 13:10:32;;;;;;;1.42;0.52;;;22.30;84.30;;;;;;4788720;29;20709;-84
2022/05/25 13:13:25;;;;;;;3.85;0.60;;;22.20;83.40;;;;;;4789701;29;20262;-82
2022/05/25 13:15:50;;;;;;;1.20;0.40;;;22.00;83.70;;;;;;4789745;29;20183;-86
2022/05/25 13:18:46;;;;;;;0.98;0.50;;;21.90;83.30;;;;;;4789271;29;20183;-83
2022/05/25 13:21:31;;;;;;;2.45;0.60;;;21.90;84.50;;;;;;4789927;29;20519;-83
2022/05/25 13:24:08;;;;;;;0.45;0.35;;;21.70;86.60;;;;;;4788473;30;20623;-83
2022/05/25 13:27:06;;;;;;;1.38;0.43;;;21.50;86.30;;;;;;4788693;30;20627;-84
2022/05/25 13:29:47;;;;;;;2.95;0.50;;;21.50;87.80;;;;;;4789935;30;20285;-83
2022/05/25 13:32:26;;;;;;;0.85;0.65;;;21.40;87.30;;;;;;4787793;29;20190;-83
2022/05/25 13:34:52;;;;;;;3.50;0.68;;;21.20;85.60;;;;;;4788163;30;20274;-85
2022/05/25 13:37:18;;;;;;;2.22;0.75;;;21.10;87.80;;;;;;4788762;29;20312;-82
2022/05/25 13:39:43;;;;;;;0.70;0.50;;;21.30;89.20;;;;;;4788733;29;20282;-83
2022/05/25 13:42:13;;;;;;;2.15;0.50;;;21.70;87.30;;;;;;4789172;29;20577;-86
2022/05/25 13:44:50;;;;;;;1.00;0.50;;;21.80;84.80;;;;;;4803113;29;20240;-87
2022/05/25 13:47:19;;;;;;;0.50;0.47;;;21.60;84.90;;;;;;4789488;29;20257;-87
2022/05/25 13:49:48;;;;;;;0.65;0.32;;;21.70;86.20;;;;;;4802107;29;20212;-85